Terminal Aerodrome Forecast
Issued by NWS Pueblo, CO

Home | Current Version | Previous Version | Text Only | Print | Product List | Glossary On
Versions: 1 2 3 4 5 6 7 8 9 10 11 12 13 14 15 16 17 18 19 20 21 22 23 24 25 26 27 28 29 30 31 32 33 34 35 36 37 38 39 40 41 42 43 44 45 46 47
000
FTUS45 KPUB 271008 AAB
TAFCOS
TAF AMD
KCOS 271008Z 2710/2806 34015G25KT 4SM -RA OVC030
     FM271500 35020G30KT P6SM VCSH BKN040 BKN060
     FM272100 36018G28KT P6SM SCT080 BKN100
     FM280200 36009KT P6SM SCT150 SCT250=

USA.gov is the U.S. government's official web portal to all federal, state and local government web resources and services.